This is the latest recevied weather packets stored in our database for station/object BARLOW-WX. If no packets are shown the sender has not sent any weather packets the latest 10 day(s).
| Time | Temp. | Humidity | Pressure | Rain* | Wind** | Luminosity | Snow |
|---|---|---|---|---|---|---|---|
| 1787842880 | 22.22° C | 68% | 987.4 hPa | 0 mm | - | - | - |
| 1787841980 | 21.67° C | 81% | 986.3 hPa | 0 mm | - | - | - |
| 1787841078 | 21.11° C | 80% | 986.8 hPa | 0 mm | - | - | - |
| 1787840178 | 20.56° C | 80% | 986.9 hPa | 0 mm | - | - | - |
| 1787839278 | 20.56° C | 80% | 987 hPa | 0 mm | - | - | - |
| 1787838379 | 20° C | 91% | 986 hPa | 0 mm | - | - | - |
| 1787837478 | 18.89° C | 91% | 986 hPa | 0 mm | - | - | - |
| 1787836579 | 18.33° C | 91% | 986 hPa | 0 mm | - | - | - |
| 1787835680 | 17.78° C | 91% | 986.1 hPa | 0 mm | - | - | - |
| 1787834778 | 17.22° C | 96% | 985.6 hPa | 0 mm | - | - | - |
| 1787833878 | 17.22° C | 96% | 985.7 hPa | 0 mm | - | - | - |
| 1787832978 | 16.11° C | 96% | 985.7 hPa | 0 mm | - | - | - |
| 1787832091 | 15.56° C | 96% | 985.7 hPa | 0 mm | - | - | - |
| 1787831178 | 15.56° C | 93% | 985 hPa | 0 mm | - | - | - |
| 1787830278 | 15° C | 93% | 985 hPa | 0 mm | - | - | - |
| 1787829378 | 15° C | 93% | 985 hPa | 0 mm | - | - | - |
| 1787828479 | 15° C | 93% | 985 hPa | 0 mm | - | - | - |
| 1787827579 | 15° C | 94% | 985.5 hPa | 0 mm | - | - | - |
| 1787826678 | 15.56° C | 94% | 985.5 hPa | 0 mm | - | - | - |
| 1787825778 | 15.56° C | 94% | 985.5 hPa | 0 mm | - | - | - |
| 1787824879 | 15.56° C | 94% | 985.9 hPa | 0 mm | - | - | - |
| 1787823977 | 15.56° C | 94% | 985.3 hPa | 0 mm | - | - | - |
| 1787823078 | 15.56° C | 94% | 985.3 hPa | 0 mm | - | - | - |
| 1787822182 | 15.56° C | 94% | 985.3 hPa | 0 mm | - | - | - |
| 1787821279 | 15.56° C | 94% | 985.3 hPa | 0 mm | - | - | - |
* Rain latest hour (hover to see other rain measurements)
** Current wind speed in m/s (hover to see current wind gust speed)